KLGU/LGU METAR and TAF weather

Enter ICAO airport designator
Station Type Date Time Source
KLGU METAR 2019/04/20 22:51 UTC NOAA

KLGU 202251Z AUTO 23010KT 10SM CLR 21/02 A2970 RMK AO2 SLP025 T02110017


Station Type Date Time Source
KLGU Decoded METAR 2019/04/20 22:51 UTC NOAA

LOGAN CACHE AIRPORT, UT, United States (KLGU) 41-47N 111-51W 1355M
Apr 20, 2019 - 06:51 PM EDT / 2019.04.20 2251 UTC
Wind: from the SW (230 degrees) at 12 MPH (10 KT):0
Visibility: 10 mile(s):0
Sky conditions: clear
Temperature: 70.0 F (21.1 C)
Dew Point: 35.1 F (1.7 C)
Relative Humidity: 27%
Pressure (altimeter): 29.7 in. Hg (1005 hPa)
ob: KLGU 202251Z AUTO 23010KT 10SM CLR 21/02 A2970 RMK AO2 SLP025 T02110017
cycle: 23

Station Type Date Time Source
KLGU TAF 2019/04/20 18:48 UTC NOAA

TAF KLGU 201744Z 2018/2118 31005KT P6SM SCT130 BKN180
FM202100 21008KT P6SM SCT100 BKN150
FM210100 25005KT P6SM SCT070 OVC100
FM210800 33005KT P6SM -SHRA SCT040 OVC060

Example: see airport list